Time;durP1;ratioP1;P1;durP2;ratioP2;P2;SDS_P1;SDS_P2;PMS_P1;PMS_P2;Temp;Humidity;BMP_temperature;BMP_pressure;BME280_temperature;BME280_humidity;BME280_pressure;Samples;Min_cycle;Max_cycle;Signal;HPM_P1;HPM_P2
2023/01/25 00:02:15;;;;;;;2.77;2.47;;;;;;;2.79;96.16;96840.41;4340432;32;20365;-64
2023/01/25 00:04:40;;;;;;;2.50;2.40;;;;;;;2.66;96.28;96834.22;4327362;32;20313;-63
2023/01/25 00:07:07;;;;;;;2.87;2.63;;;;;;;2.74;96.18;96836.59;4336329;32;20194;-63
2023/01/25 00:09:32;;;;;;;1.73;1.73;;;;;;;2.74;96.16;96831.34;4341292;32;20197;-64
2023/01/25 00:11:58;;;;;;;2.97;2.87;;;;;;;2.88;95.95;96836.56;4339705;32;20316;-63
2023/01/25 00:14:25;;;;;;;4.33;3.37;;;;;;;2.77;95.79;96832.75;4330170;32;20216;-63
2023/01/25 00:16:53;;;;;;;4.53;3.23;;;;;;;2.92;95.56;96835.94;4328290;32;20304;-63
2023/01/25 00:19:20;;;;;;;2.60;2.50;;;;;;;2.91;94.98;96839.56;4291840;32;20442;-63
2023/01/25 00:21:48;;;;;;;2.20;2.10;;;;;;;2.91;95.28;96831.69;4315848;33;20294;-64
2023/01/25 00:24:14;;;;;;;3.80;3.50;;;;;;;2.78;95.84;96838.81;4340982;32;20285;-63
2023/01/25 00:26:42;;;;;;;3.83;3.53;;;;;;;2.65;96.40;96832.59;4330153;32;20292;-63
2023/01/25 00:29:13;;;;;;;2.77;2.57;;;;;;;2.70;96.66;96840.63;4312380;32;20201;-63
2023/01/25 00:31:49;;;;;;;3.13;2.83;;;;;;;2.73;96.67;96834.19;4318743;32;20307;-63
2023/01/25 00:34:24;;;;;;;3.17;2.97;;;;;;;2.72;96.12;96836.00;4338182;32;20281;-63
2023/01/25 00:37:08;;;;;;;3.90;3.70;;;;;;;2.80;96.27;96836.78;4318326;32;20290;-63
2023/01/25 00:39:34;;;;;;;4.13;3.27;;;;;;;2.63;96.61;96833.81;4326520;32;20336;-63
2023/01/25 00:42:01;;;;;;;3.97;3.63;;;;;;;2.59;96.24;96835.22;4325451;32;20298;-63
2023/01/25 00:44:26;;;;;;;4.70;4.33;;;;;;;2.76;96.03;96831.97;4329007;32;20293;-63
2023/01/25 00:46:52;;;;;;;3.10;3.00;;;;;;;2.53;96.53;96834.22;4321142;32;20309;-63
2023/01/25 00:49:25;;;;;;;3.90;3.60;;;;;;;2.43;97.25;96828.63;4340038;32;20189;-63
2023/01/25 00:51:52;;;;;;;3.77;3.57;;;;;;;2.44;97.65;96829.44;4325869;32;20201;-63
2023/01/25 00:54:20;;;;;;;3.90;3.70;;;;;;;2.55;97.33;96829.59;4334234;32;20312;-64
2023/01/25 00:56:46;;;;;;;3.90;3.63;;;;;;;2.56;96.95;96823.34;4338346;32;20372;-63
2023/01/25 00:59:13;;;;;;;4.53;3.67;;;;;;;2.51;97.02;96831.00;4310909;33;20286;-64
2023/01/25 01:01:40;;;;;;;3.10;2.90;;;;;;;2.31;97.39;96832.84;4312934;32;20197;-63
2023/01/25 01:04:07;;;;;;;2.67;2.53;;;;;;;2.46;97.47;96832.66;4338705;32;20353;-64
2023/01/25 01:06:41;;;;;;;3.10;2.53;;;;;;;2.49;97.00;96832.25;4321048;33;20336;-63
2023/01/25 01:09:12;;;;;;;2.40;2.20;;;;;;;2.54;97.12;96827.19;4329404;32;20289;-64
2023/01/25 01:11:37;;;;;;;3.87;3.57;;;;;;;2.58;97.06;96836.25;4320981;32;20294;-63
2023/01/25 01:14:02;;;;;;;3.40;3.20;;;;;;;2.65;96.94;96826.56;4329584;32;20372;-63
2023/01/25 01:16:30;;;;;;;5.27;4.80;;;;;;;2.77;96.29;96824.91;4316753;32;20258;-64
2023/01/25 01:18:58;;;;;;;3.13;3.03;;;;;;;2.69;96.15;96828.56;4320740;32;20193;-64
2023/01/25 01:21:26;;;;;;;2.93;2.77;;;;;;;2.74;96.35;96828.75;4320192;32;20321;-63
2023/01/25 01:23:53;;;;;;;3.03;2.93;;;;;;;2.68;96.04;96832.19;4342487;32;20282;-63
2023/01/25 01:26:19;;;;;;;3.53;3.33;;;;;;;2.66;96.81;96828.19;4316300;32;20289;-62
2023/01/25 01:28:45;;;;;;;2.37;2.27;;;;;;;2.60;96.52;96827.19;4291571;33;20335;-63
2023/01/25 01:31:17;;;;;;;4.07;3.73;;;;;;;2.50;96.64;96821.53;4319379;32;20314;-63
2023/01/25 01:33:43;;;;;;;4.93;4.53;;;;;;;2.54;96.78;96819.31;4301693;33;20202;-63
2023/01/25 01:36:12;;;;;;;5.13;4.47;;;;;;;2.60;97.12;96816.69;4317103;32;20309;-63
2023/01/25 01:38:37;;;;;;;5.63;2.80;;;;;;;2.65;97.00;96810.84;4324505;32;20304;-63
2023/01/25 01:41:03;;;;;;;3.43;3.23;;;;;;;2.89;96.48;96811.97;4329115;33;20329;-63
2023/01/25 01:43:32;;;;;;;1.73;1.73;;;;;;;3.03;95.45;96805.66;4308858;32;20220;-63
2023/01/25 01:46:01;;;;;;;2.97;2.77;;;;;;;2.91;95.08;96815.19;4324556;32;20260;-63
2023/01/25 01:48:41;;;;;;;2.33;2.23;;;;;;;2.85;95.48;96826.50;4329660;32;20352;-63
2023/01/25 01:51:26;;;;;;;2.90;2.70;;;;;;;2.87;95.44;96822.66;4328592;32;20327;-63
2023/01/25 01:54:06;;;;;;;1.93;1.83;;;;;;;2.93;95.19;96808.72;4330195;32;20282;-63
2023/01/25 01:57:02;;;;;;;3.03;2.93;;;;;;;3.05;94.84;96811.50;4353225;32;20286;-63
2023/01/25 01:59:42;;;;;;;3.30;3.00;;;;;;;3.02;94.72;96817.97;4318786;32;20286;-64
2023/01/25 02:02:07;;;;;;;3.10;2.83;;;;;;;3.00;95.20;96813.94;4330477;32;20289;-63
2023/01/25 02:04:37;;;;;;;2.23;2.13;;;;;;;2.96;94.93;96816.16;4322111;32;20321;-64
2023/01/25 02:07:13;;;;;;;4.57;4.27;;;;;;;2.90;95.15;96818.84;4313206;32;20210;-63
2023/01/25 02:09:39;;;;;;;2.17;2.07;;;;;;;2.82;95.18;96821.66;4311986;32;20313;-63
2023/01/25 02:12:08;;;;;;;4.97;3.97;;;;;;;2.78;95.97;96820.47;4347202;32;20308;-63
2023/01/25 02:14:36;;;;;;;4.67;4.27;;;;;;;2.85;95.43;96813.41;4340969;32;20253;-63
2023/01/25 02:17:03;;;;;;;2.40;2.30;;;;;;;2.78;95.49;96810.78;4302542;33;20330;-63
2023/01/25 02:19:49;;;;;;;3.23;2.93;;;;;;;2.87;95.54;96814.00;4325611;32;20342;-63
2023/01/25 02:22:19;;;;;;;2.03;1.93;;;;;;;2.83;95.74;96812.81;4327982;32;20282;-63
2023/01/25 02:24:53;;;;;;;2.97;2.87;;;;;;;2.76;95.91;96808.37;4308931;32;20288;-63
2023/01/25 02:27:21;;;;;;;4.17;3.73;;;;;;;2.93;95.93;96807.91;4339051;32;20348;-63
2023/01/25 02:29:48;;;;;;;3.30;3.20;;;;;;;2.94;94.88;96812.94;4298095;32;20383;-63
2023/01/25 02:32:13;;;;;;;2.77;2.67;;;;;;;2.73;95.32;96808.78;4294227;32;20336;-63
2023/01/25 02:34:39;;;;;;;3.40;3.20;;;;;;;2.76;95.87;96813.63;4329832;32;20286;-63
2023/01/25 02:37:05;;;;;;;3.47;3.23;;;;;;;2.72;95.85;96803.75;4334869;32;20223;-64
2023/01/25 02:39:32;;;;;;;2.70;2.60;;;;;;;2.69;95.71;96812.84;4340824;32;20189;-63
2023/01/25 02:41:57;;;;;;;2.40;2.30;;;;;;;2.65;96.09;96811.66;4339539;32;20298;-64
2023/01/25 02:44:26;;;;;;;3.17;2.97;;;;;;;2.62;96.51;96806.81;4332893;32;20279;-64
2023/01/25 02:46:52;;;;;;;3.43;3.23;;;;;;;2.71;95.99;96805.56;4336337;32;20202;-64
2023/01/25 02:49:19;;;;;;;3.97;3.67;;;;;;;2.76;95.40;96799.72;4314946;33;20344;-64
2023/01/25 02:51:49;;;;;;;2.47;2.37;;;;;;;2.61;95.12;96799.97;4330549;32;20193;-63
2023/01/25 02:54:18;;;;;;;2.77;2.50;;;;;;;2.58;95.69;96800.37;4313203;32;20290;-64
2023/01/25 02:56:43;;;;;;;2.47;2.37;;;;;;;2.32;96.49;96795.19;4317516;32;20326;-64
2023/01/25 02:59:09;;;;;;;9.90;2.73;;;;;;;2.42;96.40;96790.34;4341562;32;20291;-63
2023/01/25 03:01:38;;;;;;;2.50;2.40;;;;;;;2.57;96.27;96792.72;4337289;32;20251;-63
2023/01/25 03:04:05;;;;;;;3.40;3.20;;;;;;;2.51;96.06;96794.34;4309181;32;20330;-63
2023/01/25 03:06:33;;;;;;;3.27;3.13;;;;;;;2.59;95.75;96788.09;4343508;32;20293;-63
2023/01/25 03:09:00;;;;;;;3.10;2.77;;;;;;;2.53;95.68;96791.53;4331157;32;20301;-64
2023/01/25 03:11:28;;;;;;;1.83;1.80;;;;;;;2.45;96.08;96787.34;4318846;32;20303;-63
2023/01/25 03:13:54;;;;;;;4.60;4.33;;;;;;;2.53;96.57;96784.47;4304209;32;20306;-64
2023/01/25 03:16:19;;;;;;;4.00;3.77;;;;;;;2.44;96.58;96785.72;4331107;32;20416;-63
2023/01/25 03:18:45;;;;;;;2.70;2.60;;;;;;;2.27;97.17;96784.56;4316151;32;20255;-63
2023/01/25 03:21:17;;;;;;;2.80;2.70;;;;;;;2.44;97.49;96777.87;4322441;32;20198;-63
2023/01/25 03:23:44;;;;;;;4.37;3.13;;;;;;;2.45;97.40;96776.06;4323135;32;20312;-63
2023/01/25 03:26:09;;;;;;;3.00;2.83;;;;;;;2.36;97.54;96778.88;4307207;32;20277;-63
2023/01/25 03:28:37;;;;;;;2.40;2.30;;;;;;;2.47;97.41;96776.66;4302768;32;20290;-64
2023/01/25 03:31:03;;;;;;;3.93;3.73;;;;;;;2.49;97.38;96774.63;4306628;32;20286;-64
2023/01/25 03:33:29;;;;;;;2.30;2.20;;;;;;;2.64;96.80;96773.38;4324006;32;20290;-63
2023/01/25 03:35:58;;;;;;;2.50;2.40;;;;;;;2.61;96.89;96775.59;4320400;32;20193;-63
2023/01/25 03:38:34;;;;;;;2.30;2.20;;;;;;;2.55;96.50;96777.22;4341591;32;20302;-64
2023/01/25 03:41:00;;;;;;;1.97;1.77;;;;;;;2.45;96.67;96778.69;4312084;32;20285;-63
2023/01/25 03:43:26;;;;;;;2.33;2.10;;;;;;;2.65;95.77;96774.97;4344760;32;20315;-64
2023/01/25 03:46:00;;;;;;;2.33;2.27;;;;;;;2.40;96.54;96774.84;4314401;32;20291;-63
2023/01/25 03:48:27;;;;;;;3.73;3.53;;;;;;;2.58;96.14;96774.19;4314530;32;20192;-63
2023/01/25 03:50:56;;;;;;;3.77;3.47;;;;;;;2.45;96.33;96763.78;4314052;33;20324;-63
2023/01/25 03:53:31;;;;;;;3.20;3.07;;;;;;;2.62;96.11;96772.78;4323943;32;20344;-63
2023/01/25 03:56:00;;;;;;;5.53;3.50;;;;;;;2.47;96.20;96767.00;4328414;32;20285;-62
2023/01/25 03:58:33;;;;;;;2.43;2.33;;;;;;;2.51;96.29;96762.13;4336185;32;20412;-63
2023/01/25 04:01:01;;;;;;;1.73;1.63;;;;;;;2.46;96.84;96765.38;4324779;32;20297;-63
2023/01/25 04:03:28;;;;;;;4.93;3.50;;;;;;;2.31;96.47;96770.03;4319440;32;20323;-63
2023/01/25 04:05:57;;;;;;;5.50;2.93;;;;;;;2.26;97.38;96769.87;4305657;32;20301;-63
2023/01/25 04:08:23;;;;;;;3.23;3.10;;;;;;;2.35;97.52;96769.41;4299763;32;20289;-63
2023/01/25 04:11:01;;;;;;;2.93;1.73;;;;;;;2.30;97.49;96781.50;4351704;32;20286;-63
2023/01/25 04:13:27;;;;;;;3.10;2.90;;;;;;;2.23;97.54;96776.31;4326376;32;20297;-63
2023/01/25 04:15:53;;;;;;;2.67;2.57;;;;;;;2.35;97.61;96773.84;4316244;32;20308;-63
2023/01/25 04:18:20;;;;;;;3.77;3.47;;;;;;;2.45;97.04;96769.00;4303222;32;20204;-63
2023/01/25 04:20:55;;;;;;;2.07;1.97;;;;;;;2.51;96.41;96770.78;4305308;32;20357;-63
2023/01/25 04:23:22;;;;;;;3.53;3.23;;;;;;;2.32;96.57;96759.34;4323157;32;20362;-63
2023/01/25 04:25:54;;;;;;;3.27;3.07;;;;;;;2.24;97.15;96756.16;4320000;32;20316;-63
2023/01/25 04:28:19;;;;;;;3.13;2.93;;;;;;;2.49;96.77;96753.69;4309818;32;20319;-63
2023/01/25 04:30:44;;;;;;;1.83;1.73;;;;;;;2.59;96.70;96752.22;4311536;33;20291;-63
2023/01/25 04:33:10;;;;;;;1.90;1.87;;;;;;;2.55;96.51;96748.41;4318321;32;20216;-64
2023/01/25 04:35:37;;;;;;;2.47;2.37;;;;;;;2.54;96.51;96759.09;4336095;32;20224;-64
2023/01/25 04:38:02;;;;;;;5.67;2.97;;;;;;;2.45;96.71;96753.28;4307352;32;20265;-64
2023/01/25 04:40:28;;;;;;;2.07;1.97;;;;;;;2.55;96.57;96756.25;4315140;32;20350;-64
2023/01/25 04:42:54;;;;;;;2.73;2.53;;;;;;;2.44;96.51;96751.69;4315093;32;20219;-63
2023/01/25 04:45:19;;;;;;;2.00;1.97;;;;;;;2.36;96.28;96754.50;4313804;33;20246;-64
2023/01/25 04:47:44;;;;;;;4.43;2.20;;;;;;;2.31;96.70;96747.28;4316635;33;20194;-64
2023/01/25 04:50:10;;;;;;;2.23;2.13;;;;;;;2.30;96.77;96739.63;4321620;32;20248;-64
2023/01/25 04:52:35;;;;;;;1.63;1.53;;;;;;;2.29;96.06;96740.63;4328910;32;20189;-64
2023/01/25 04:55:01;;;;;;;2.50;2.40;;;;;;;2.29;96.29;96743.25;4324833;32;20201;-64
2023/01/25 04:57:26;;;;;;;3.47;3.27;;;;;;;2.56;95.87;96739.53;4319226;32;20198;-63
2023/01/25 04:59:51;;;;;;;1.43;1.43;;;;;;;2.39;95.71;96738.41;4327257;32;20208;-64
2023/01/25 05:02:17;;;;;;;2.20;2.10;;;;;;;2.45;95.92;96726.31;4326320;32;20177;-64
2023/01/25 05:04:42;;;;;;;2.87;2.67;;;;;;;2.57;95.28;96724.63;4326999;32;20182;-64
2023/01/25 05:07:07;;;;;;;2.47;2.33;;;;;;;2.44;95.51;96725.50;4329200;32;20204;-64
2023/01/25 05:09:32;;;;;;;2.13;2.03;;;;;;;2.26;95.67;96720.12;4315755;32;20253;-63
2023/01/25 05:12:00;;;;;;;2.50;2.40;;;;;;;2.38;95.80;96723.69;4313456;32;20204;-64
2023/01/25 05:14:25;;;;;;;2.17;2.07;;;;;;;2.26;95.65;96723.53;4330419;32;20296;-63
2023/01/25 05:16:50;;;;;;;2.10;2.10;;;;;;;2.27;96.33;96714.69;4322268;32;20295;-63
2023/01/25 05:19:16;;;;;;;1.50;1.50;;;;;;;2.38;95.89;96718.47;4328668;32;20268;-64
2023/01/25 05:21:59;;;;;;;2.17;2.07;;;;;;;2.39;95.93;96718.25;4339802;32;20194;-64
2023/01/25 05:24:29;;;;;;;2.60;2.50;;;;;;;2.34;96.21;96714.66;4329172;32;20212;-63
2023/01/25 05:27:04;;;;;;;2.70;2.50;;;;;;;2.48;95.78;96721.47;4329395;32;20324;-63
2023/01/25 05:29:38;;;;;;;4.57;2.63;;;;;;;2.53;95.39;96719.00;4321763;33;20295;-64
2023/01/25 05:32:10;;;;;;;1.80;1.77;;;;;;;2.51;94.91;96721.03;4323435;32;20342;-63
2023/01/25 05:34:36;;;;;;;1.50;1.40;;;;;;;2.62;94.87;96716.97;4318172;32;20298;-63
2023/01/25 05:37:03;;;;;;;2.90;2.73;;;;;;;2.52;94.74;96712.16;4328500;32;20312;-63
2023/01/25 05:39:29;;;;;;;2.23;2.13;;;;;;;2.57;94.45;96722.81;4317704;32;20389;-63
2023/01/25 05:41:54;;;;;;;2.57;2.47;;;;;;;2.41;94.66;96718.06;4320975;33;20303;-63
2023/01/25 05:44:20;;;;;;;1.33;1.33;;;;;;;2.31;95.35;96713.25;4321764;32;20217;-63
2023/01/25 05:46:45;;;;;;;1.77;1.77;;;;;;;2.42;95.35;96711.81;4317930;32;20253;-63
2023/01/25 05:49:11;;;;;;;1.70;1.60;;;;;;;2.20;95.65;96721.75;4328140;32;20190;-63
2023/01/25 05:51:37;;;;;;;1.93;1.83;;;;;;;2.38;95.21;96721.88;4327429;32;20185;-63
2023/01/25 05:54:04;;;;;;;2.17;1.97;;;;;;;2.25;95.39;96710.66;4326479;32;20212;-63
2023/01/25 05:56:30;;;;;;;2.20;2.00;;;;;;;2.39;95.12;96712.22;4328972;32;20327;-64
2023/01/25 05:58:57;;;;;;;1.43;1.43;;;;;;;2.43;94.56;96718.66;4330019;32;20294;-63
2023/01/25 06:01:24;;;;;;;1.63;1.63;;;;;;;2.31;94.74;96704.59;4330142;32;20203;-63
2023/01/25 06:03:49;;;;;;;2.90;2.73;;;;;;;2.26;95.03;96717.50;4327892;32;20279;-63
2023/01/25 06:06:15;;;;;;;1.57;1.57;;;;;;;2.32;95.31;96711.41;4330578;32;20286;-62
2023/01/25 06:08:40;;;;;;;2.90;2.27;;;;;;;2.48;94.56;96708.37;4321259;32;20223;-64
2023/01/25 06:11:10;;;;;;;2.03;1.93;;;;;;;2.45;94.57;96706.16;4324686;32;20235;-63
2023/01/25 06:13:36;;;;;;;2.33;2.20;;;;;;;2.58;94.04;96707.91;4329029;32;20209;-63
2023/01/25 06:16:01;;;;;;;1.53;1.33;;;;;;;2.66;93.79;96710.31;4322109;32;20345;-63
2023/01/25 06:18:29;;;;;;;2.63;2.43;;;;;;;2.79;93.47;96702.38;4322771;32;20206;-63
2023/01/25 06:20:59;;;;;;;1.83;1.73;;;;;;;2.81;93.00;96697.72;4328958;32;20202;-63
2023/01/25 06:23:25;;;;;;;1.50;1.50;;;;;;;2.62;92.65;96696.81;4339480;32;20297;-63
2023/01/25 06:25:52;;;;;;;1.23;1.23;;;;;;;2.52;93.61;96699.06;4327560;32;20278;-63
2023/01/25 06:28:18;;;;;;;2.27;2.17;;;;;;;2.60;93.38;96698.84;4321420;32;20279;-63
2023/01/25 06:30:43;;;;;;;1.73;1.73;;;;;;;2.54;93.52;96699.66;4327915;32;20381;-64
2023/01/25 06:33:08;;;;;;;0.83;0.83;;;;;;;2.60;93.57;96695.41;4327290;32;20205;-63
2023/01/25 06:35:34;;;;;;;1.93;1.90;;;;;;;2.54;93.34;96699.66;4338435;32;20247;-64
2023/01/25 06:38:00;;;;;;;1.50;1.50;;;;;;;2.58;93.42;96697.44;4325870;32;20239;-63
2023/01/25 06:40:27;;;;;;;1.00;1.00;;;;;;;2.54;93.22;96694.41;4331359;32;20216;-63
2023/01/25 06:42:53;;;;;;;1.67;1.60;;;;;;;2.61;92.82;96691.78;4325282;32;20303;-63
2023/01/25 06:45:18;;;;;;;1.30;1.30;;;;;;;2.60;92.34;96700.66;4330634;32;20287;-63
2023/01/25 06:47:45;;;;;;;2.43;2.23;;;;;;;2.35;92.44;96690.06;4327683;32;20237;-63
2023/01/25 06:50:11;;;;;;;0.93;0.93;;;;;;;2.31;92.70;96694.91;4327928;32;20211;-63
2023/01/25 06:52:36;;;;;;;1.60;1.50;;;;;;;2.56;91.66;96687.16;4330073;32;20294;-63
2023/01/25 06:55:07;;;;;;;1.00;1.00;;;;;;;2.67;91.24;96690.94;4329966;32;20207;-63
2023/01/25 06:57:33;;;;;;;1.23;1.13;;;;;;;2.53;90.93;96679.72;4341800;32;20261;-63
2023/01/25 06:59:59;;;;;;;1.97;1.87;;;;;;;2.48;92.15;96684.81;4329245;32;20294;-63
2023/01/25 07:02:24;;;;;;;7.27;2.30;;;;;;;2.57;92.05;96673.06;4330512;32;20305;-63
2023/01/25 07:04:50;;;;;;;1.40;1.30;;;;;;;2.41;92.22;96669.09;4330441;32;20278;-63
2023/01/25 07:07:15;;;;;;;1.20;1.20;;;;;;;2.43;92.62;96661.03;4328611;32;20232;-65
2023/01/25 07:09:40;;;;;;;1.13;1.13;;;;;;;2.57;92.48;96667.00;4341102;32;20197;-63
2023/01/25 07:12:06;;;;;;;2.17;2.07;;;;;;;2.57;92.25;96656.53;4330687;32;20204;-63
2023/01/25 07:14:31;;;;;;;1.17;1.13;;;;;;;2.37;92.33;96664.50;4330328;32;20232;-63
2023/01/25 07:16:57;;;;;;;1.83;1.73;;;;;;;2.12;93.75;96661.75;4329577;32;20204;-64
2023/01/25 07:19:23;;;;;;;1.80;1.80;;;;;;;2.21;94.31;96664.97;4327098;33;20236;-63
2023/01/25 07:21:48;;;;;;;3.80;3.37;;;;;;;2.06;94.34;96663.41;4325508;32;20193;-63
2023/01/25 07:24:16;;;;;;;2.07;1.97;;;;;;;2.23;94.31;96665.56;4329045;32;20332;-57
2023/01/25 07:26:42;;;;;;;1.70;1.60;;;;;;;4.09;100.00;96656.91;4324020;32;20236;-57
2023/01/25 07:29:11;;;;;;;1.63;1.53;;;;;;;5.94;100.00;96643.69;4328639;32;20297;-57
2023/01/25 07:31:36;;;;;;;1.83;1.70;;;;;;;6.83;100.00;96646.78;4316586;33;20224;-58
2023/01/25 07:34:02;;;;;;;2.00;1.90;;;;;;;7.61;100.00;96643.31;4327245;32;20328;-58
2023/01/25 07:36:27;;;;;;;2.13;2.03;;;;;;;7.81;87.60;96643.62;4340722;32;20197;-57
2023/01/25 07:38:54;;;;;;;1.50;1.23;;;;;;;7.98;81.45;96638.28;4335008;32;20217;-57
2023/01/25 07:41:20;;;;;;;1.87;1.70;;;;;;;8.89;82.83;96644.69;4329941;33;20208;-57
2023/01/25 07:43:45;;;;;;;1.83;1.73;;;;;;;9.14;78.04;96644.16;4329951;33;20294;-57
2023/01/25 07:46:12;;;;;;;2.87;2.63;;;;;;;9.08;71.45;96645.16;4327289;33;20189;-57
2023/01/25 07:48:39;;;;;;;1.90;1.80;;;;;;;9.43;72.94;96644.66;4314224;32;20262;-57
2023/01/25 07:51:11;;;;;;;4.20;1.87;;;;;;;9.72;72.00;96647.78;4319195;33;20237;-58
2023/01/25 07:53:42;;;;;;;1.90;1.80;;;;;;;9.85;69.53;96652.63;4332817;32;20189;-56
2023/01/25 07:56:09;;;;;;;1.37;1.27;;;;;;;9.75;68.84;96652.59;4325025;33;20240;-54
2023/01/25 07:58:35;;;;;;;2.90;2.40;;;;;;;9.66;66.90;96651.44;4313955;33;20230;-63
2023/01/25 08:01:15;;;;;;;2.17;1.97;;;;;;;7.68;66.01;96659.81;4333071;32;20181;-65
2023/01/25 08:03:42;;;;;;;6.00;2.33;;;;;;;6.84;69.28;96662.37;4326541;33;20186;-63
2023/01/25 08:06:09;;;;;;;1.53;1.53;;;;;;;5.74;72.98;96665.09;4316009;33;20190;-65
2023/01/25 08:08:38;;;;;;;2.30;2.20;;;;;;;4.68;78.33;96671.16;4316051;33;20354;-65
2023/01/25 08:11:12;;;;;;;2.03;1.93;;;;;;;4.15;81.23;96665.75;4322139;32;20309;-64
2023/01/25 08:13:38;;;;;;;1.33;1.30;;;;;;;4.05;81.85;96673.31;4326934;32;20357;-63
2023/01/25 08:16:04;;;;;;;1.13;1.10;;;;;;;3.73;84.20;96672.66;4328538;32;20301;-61
2023/01/25 08:18:29;;;;;;;1.70;1.60;;;;;;;3.34;86.05;96665.91;4339206;32;20212;-64
2023/01/25 08:20:58;;;;;;;1.20;1.10;;;;;;;3.21;86.89;96672.06;4335984;32;20200;-63
2023/01/25 08:23:23;;;;;;;1.73;1.63;;;;;;;3.21;86.95;96674.69;4320572;33;20264;-62
2023/01/25 08:25:49;;;;;;;0.70;0.70;;;;;;;3.42;86.25;96665.63;4327091;32;20286;-63
2023/01/25 08:28:14;;;;;;;2.17;2.07;;;;;;;3.28;86.20;96662.34;4335702;32;20251;-65
2023/01/25 08:30:39;;;;;;;1.47;1.37;;;;;;;3.33;86.06;96669.53;4316823;33;20194;-66
2023/01/25 08:33:05;;;;;;;1.93;1.83;;;;;;;3.75;85.57;96652.22;4331072;32;20190;-63
2023/01/25 08:35:30;;;;;;;3.33;2.60;;;;;;;3.72;84.68;96650.84;4329588;33;20265;-63
2023/01/25 08:37:55;;;;;;;1.10;1.10;;;;;;;3.76;85.61;96659.88;4318094;33;20189;-62
2023/01/25 08:40:21;;;;;;;1.47;1.30;;;;;;;3.40;85.51;96657.97;4306212;32;20253;-62
2023/01/25 08:42:46;;;;;;;2.07;1.97;;;;;;;3.69;84.57;96651.28;4331957;32;20260;-62
2023/01/25 08:45:12;;;;;;;1.73;1.63;;;;;;;3.50;85.07;96652.25;4334383;32;20189;-62
2023/01/25 08:47:37;;;;;;;1.57;1.50;;;;;;;3.82;85.15;96650.34;4331731;32;20199;-62
2023/01/25 08:50:04;;;;;;;2.03;1.93;;;;;;;3.53;85.25;96643.16;4317190;33;20216;-64
2023/01/25 08:52:31;;;;;;;1.17;1.17;;;;;;;3.21;86.67;96645.84;4312808;33;20194;-65
2023/01/25 08:54:58;;;;;;;2.10;2.00;;;;;;;3.60;85.54;96642.06;4323222;33;20309;-63
2023/01/25 08:57:25;;;;;;;2.03;1.93;;;;;;;3.43;85.10;96644.44;4334911;33;20297;-64
2023/01/25 08:59:50;;;;;;;1.60;1.60;;;;;;;3.26;86.37;96645.22;4317777;33;20277;-62
2023/01/25 09:02:16;;;;;;;1.43;1.33;;;;;;;3.55;86.06;96643.72;4319165;33;20352;-63
2023/01/25 09:04:41;;;;;;;4.00;2.13;;;;;;;3.57;85.87;96636.44;4315138;33;20213;-62
2023/01/25 09:07:06;;;;;;;1.80;1.70;;;;;;;3.52;85.94;96631.87;4333453;32;20189;-63
2023/01/25 09:09:32;;;;;;;2.57;2.37;;;;;;;3.24;87.08;96637.56;4318613;33;20253;-63
2023/01/25 09:11:57;;;;;;;2.17;1.97;;;;;;;3.39;86.95;96627.53;4326431;33;20196;-65
2023/01/25 09:14:22;;;;;;;1.23;1.23;;;;;;;3.47;87.14;96625.66;4327286;33;20193;-63
2023/01/25 09:16:48;;;;;;;1.03;1.03;;;;;;;3.58;86.08;96624.94;4316823;33;20208;-62
2023/01/25 09:19:14;;;;;;;2.40;2.23;;;;;;;3.68;86.21;96612.13;4331002;32;20198;-63
2023/01/25 09:21:39;;;;;;;4.17;2.03;;;;;;;3.54;86.15;96618.50;4314611;33;20257;-64
2023/01/25 09:24:05;;;;;;;1.57;1.40;;;;;;;3.53;86.34;96624.81;4314505;33;20251;-64
2023/01/25 09:26:32;;;;;;;1.50;1.50;;;;;;;3.50;85.21;96620.78;4313725;33;20181;-62
2023/01/25 09:28:57;;;;;;;1.70;1.60;;;;;;;3.49;86.01;96626.25;4315880;33;20190;-64
2023/01/25 09:31:23;;;;;;;2.93;2.73;;;;;;;3.27;86.58;96624.00;4319837;33;20337;-62
2023/01/25 09:33:49;;;;;;;1.17;1.17;;;;;;;3.29;86.82;96618.56;4322712;33;20190;-63
2023/01/25 09:36:15;;;;;;;1.10;1.10;;;;;;;3.39;86.67;96619.66;4343533;32;20249;-64
2023/01/25 09:38:40;;;;;;;1.07;1.07;;;;;;;3.09;87.51;96630.00;4323321;33;20357;-63
2023/01/25 09:41:35;;;;;;;1.77;0.90;;;;;;;3.60;86.71;96621.09;4329737;33;20189;-65
2023/01/25 09:44:31;;;;;;;1.57;1.57;;;;;;;3.82;85.74;96618.84;4315974;33;20190;-61
2023/01/25 09:47:37;;;;;;;1.50;1.50;;;;;;;4.11;84.40;96614.69;4318930;32;20282;-64
2023/01/25 09:50:14;;;;;;;0.77;0.77;;;;;;;3.96;84.57;96614.25;4322301;33;20302;-55
2023/01/25 09:53:21;;;;;;;1.43;1.33;;;;;;;7.13;100.00;96602.44;4315294;33;20283;-52
2023/01/25 09:55:52;;;;;;;1.20;1.10;;;;;;;9.51;90.68;96595.72;4309433;33;20278;-54
2023/01/25 09:58:21;;;;;;;1.10;1.00;;;;;;;10.17;68.99;96604.84;4317182;32;20282;-55
2023/01/25 10:00:53;;;;;;;2.17;1.97;;;;;;;10.51;69.64;96607.13;4334052;32;20397;-65
2023/01/25 10:03:24;;;;;;;2.03;1.93;;;;;;;7.31;66.91;96605.88;4317457;33;20284;-64
2023/01/25 10:05:52;;;;;;;2.40;2.27;;;;;;;6.15;71.78;96615.94;4314960;33;20282;-64
2023/01/25 10:08:34;;;;;;;1.80;1.70;;;;;;;5.29;76.81;96609.56;4330983;33;20322;-67
2023/01/25 10:11:21;;;;;;;1.97;1.87;;;;;;;4.48;78.98;96607.56;4340423;32;20305;-65
2023/01/25 10:13:47;;;;;;;2.07;1.87;;;;;;;3.89;82.80;96597.78;4331748;33;20274;-65
2023/01/25 10:16:24;;;;;;;2.00;1.90;;;;;;;3.33;85.25;96594.28;4317322;33;20379;-64
2023/01/25 10:18:58;;;;;;;1.90;1.80;;;;;;;3.41;85.63;96594.03;4320533;32;20278;-64
2023/01/25 10:21:29;;;;;;;1.47;1.37;;;;;;;3.17;87.43;96600.09;4321470;33;20321;-65
2023/01/25 10:24:10;;;;;;;1.43;1.43;;;;;;;3.38;86.89;96594.44;4331358;33;20394;-64
2023/01/25 10:26:40;;;;;;;1.27;1.27;;;;;;;3.15;86.72;96599.50;4328699;33;20326;-65
2023/01/25 10:29:20;;;;;;;1.07;1.07;;;;;;;3.17;87.99;96589.59;4330138;32;20330;-64
2023/01/25 10:32:11;;;;;;;1.50;1.50;;;;;;;3.22;87.31;96588.97;4326471;33;20325;-65
2023/01/25 10:34:43;;;;;;;1.50;1.33;;;;;;;3.01;88.11;96585.72;4330625;32;20294;-65
2023/01/25 10:37:14;;;;;;;2.53;2.43;;;;;;;2.88;88.63;96582.41;4331847;32;20282;-65
2023/01/25 10:40:03;;;;;;;1.33;1.33;;;;;;;3.04;88.45;96571.37;4341429;32;20316;-65
2023/01/25 10:42:36;;;;;;;1.00;1.00;;;;;;;2.60;89.19;96591.44;4318903;32;20290;-61
2023/01/25 10:45:01;;;;;;;1.90;1.80;;;;;;;2.64;89.70;96583.97;4331143;32;20358;-66
2023/01/25 10:47:30;;;;;;;1.60;1.60;;;;;;;2.85;89.93;96564.47;4331663;32;20333;-65
2023/01/25 10:49:57;;;;;;;2.30;2.20;;;;;;;2.82;89.97;96565.72;4322427;33;20216;-66
2023/01/25 10:56:09;;;;;;;2.77;2.57;;;;;;;2.94;88.71;96563.19;4329457;32;20297;-66
2023/01/25 10:58:44;;;;;;;1.83;1.77;;;;;;;3.03;88.38;96557.47;4322704;32;20290;-65
2023/01/25 11:01:24;;;;;;;1.73;1.73;;;;;;;3.24;88.25;96537.91;4321158;33;20296;-67
2023/01/25 11:03:49;;;;;;;1.80;1.77;;;;;;;3.15;87.67;96541.03;4311384;33;20298;-67
2023/01/25 11:06:28;;;;;;;2.00;1.90;;;;;;;2.96;87.85;96542.81;4326530;32;20340;-68
2023/01/25 11:08:53;;;;;;;2.13;2.03;;;;;;;2.80;88.63;96538.09;4340925;32;20190;-69
2023/01/25 11:11:33;;;;;;;5.33;2.60;;;;;;;2.59;89.08;96534.84;4330449;32;20304;-68
2023/01/25 11:13:59;;;;;;;1.03;1.03;;;;;;;2.61;89.45;96530.19;4323530;33;20255;-66
2023/01/25 11:16:34;;;;;;;2.17;2.07;;;;;;;2.69;89.13;96523.91;4332172;33;20365;-66
2023/01/25 11:19:01;;;;;;;0.70;0.70;;;;;;;2.75;89.12;96520.41;4335409;32;20197;-65
2023/01/25 11:21:32;;;;;;;0.97;0.97;;;;;;;2.26;90.30;96523.81;4331363;32;20285;-65
2023/01/25 11:24:27;;;;;;;1.43;1.40;;;;;;;2.37;90.58;96515.25;4343385;32;20286;-65
2023/01/25 11:27:16;;;;;;;2.17;2.07;;;;;;;2.54;90.38;96505.84;4328666;32;20294;-66
2023/01/25 11:29:41;;;;;;;1.67;1.57;;;;;;;2.79;90.19;96497.22;4329499;32;20290;-66
2023/01/25 11:32:23;;;;;;;1.20;1.20;;;;;;;2.90;89.33;96504.38;4323857;32;20300;-67
2023/01/25 11:34:50;;;;;;;1.13;1.13;;;;;;;2.75;88.93;96500.25;4343302;32;20184;-66
2023/01/25 11:37:24;;;;;;;3.73;1.53;;;;;;;2.89;89.03;96498.34;4330062;32;20364;-66
2023/01/25 11:40:12;;;;;;;2.10;2.00;;;;;;;2.86;88.60;96495.34;4343345;32;20364;-66
2023/01/25 11:43:00;;;;;;;2.63;2.53;;;;;;;2.71;89.69;96490.41;4330024;32;20301;-66
2023/01/25 11:45:45;;;;;;;2.70;2.60;;;;;;;2.78;89.54;96480.69;4333510;32;20300;-67
2023/01/25 11:48:43;;;;;;;3.03;2.83;;;;;;;2.64;89.64;96482.63;4331913;32;20304;-66
2023/01/25 11:51:21;;;;;;;3.13;3.03;;;;;;;2.54;90.68;96473.63;4323658;32;20282;-66
2023/01/25 11:53:50;;;;;;;2.70;2.60;;;;;;;2.81;90.20;96468.97;4330505;32;20365;-66
2023/01/25 11:56:30;;;;;;;2.77;2.67;;;;;;;2.93;88.85;96462.78;4344091;32;20328;-66